Clairemont, Texas
Current Conditions -  °F | °C
As of 6:35 AM on Friday 24 Oct 2014 (Local Time) from KSNK Reporting Station
Moderate Fog Moderate Fog  
Wind Chill: 55°   Ceiling: 100
Heat Index: 55°   Visibility: 0mi
Dew Point: 55°   Wind: 3mph
Humidity: 99%   Direction: 220°SW
Pressure: 30.15"   Gusts: NA
Location:  33.0123°N, 100.833°W
Report Text: KSNK 241135Z AUTO 22003KT M1/4SM FG OVC001 13/13 A3015 RMK AO2 T01290128
Loading
Personal Weather Stations






























Interactive Weather Map
Tropical Storm Tracking
New forecast layout! Learn more

10-Day Weather Forecast

Advertisements
Track Severe Weather on mobile